sensor_id;sensor_type;location;lat;lon;timestamp;P1;durP1;ratioP1;P2;durP2;ratioP2
35306;SDS011;21420;52.196;21.416;2022-10-16T00:01:09;25.30;;;21.05;;
35306;SDS011;21420;52.196;21.416;2022-10-16T00:03:37;25.70;;;19.92;;
35306;SDS011;21420;52.196;21.416;2022-10-16T00:06:05;25.92;;;18.65;;
35306;SDS011;21420;52.196;21.416;2022-10-16T00:08:33;26.45;;;21.12;;
35306;SDS011;21420;52.196;21.416;2022-10-16T00:11:04;25.25;;;19.85;;
35306;SDS011;21420;52.196;21.416;2022-10-16T00:13:35;26.95;;;20.65;;
35306;SDS011;21420;52.196;21.416;2022-10-16T00:18:31;23.32;;;18.55;;
35306;SDS011;21420;52.196;21.416;2022-10-16T00:21:04;28.40;;;19.77;;
35306;SDS011;21420;52.196;21.416;2022-10-16T00:23:34;22.82;;;19.75;;
35306;SDS011;21420;52.196;21.416;2022-10-16T00:26:02;28.25;;;20.27;;
35306;SDS011;21420;52.196;21.416;2022-10-16T00:28:31;24.57;;;20.45;;
35306;SDS011;21420;52.196;21.416;2022-10-16T00:30:58;24.98;;;20.72;;
35306;SDS011;21420;52.196;21.416;2022-10-16T00:33:24;26.35;;;19.65;;
35306;SDS011;21420;52.196;21.416;2022-10-16T00:35:50;25.05;;;19.82;;
35306;SDS011;21420;52.196;21.416;2022-10-16T00:38:16;26.93;;;19.00;;
35306;SDS011;21420;52.196;21.416;2022-10-16T00:40:43;28.23;;;20.92;;
35306;SDS011;21420;52.196;21.416;2022-10-16T00:43:13;25.27;;;20.20;;
35306;SDS011;21420;52.196;21.416;2022-10-16T00:46:02;27.58;;;20.12;;
35306;SDS011;21420;52.196;21.416;2022-10-16T00:49:01;25.02;;;20.85;;
35306;SDS011;21420;52.196;21.416;2022-10-16T00:51:35;26.85;;;20.72;;
35306;SDS011;21420;52.196;21.416;2022-10-16T00:54:14;27.67;;;21.70;;
35306;SDS011;21420;52.196;21.416;2022-10-16T00:56:51;31.48;;;20.65;;
35306;SDS011;21420;52.196;21.416;2022-10-16T00:59:24;24.20;;;20.35;;
35306;SDS011;21420;52.196;21.416;2022-10-16T01:01:54;27.07;;;20.90;;
35306;SDS011;21420;52.196;21.416;2022-10-16T01:04:21;27.58;;;20.15;;
35306;SDS011;21420;52.196;21.416;2022-10-16T01:15:47;27.98;;;22.50;;
35306;SDS011;21420;52.196;21.416;2022-10-16T01:18:52;28.70;;;21.80;;
35306;SDS011;21420;52.196;21.416;2022-10-16T01:21:22;33.35;;;22.65;;
35306;SDS011;21420;52.196;21.416;2022-10-16T01:29:51;25.00;;;20.57;;
35306;SDS011;21420;52.196;21.416;2022-10-16T01:35:20;24.95;;;21.85;;
35306;SDS011;21420;52.196;21.416;2022-10-16T01:38:04;27.70;;;21.05;;
35306;SDS011;21420;52.196;21.416;2022-10-16T01:40:51;26.87;;;21.77;;
35306;SDS011;21420;52.196;21.416;2022-10-16T01:43:25;26.68;;;21.42;;
35306;SDS011;21420;52.196;21.416;2022-10-16T01:45:53;25.50;;;21.57;;
35306;SDS011;21420;52.196;21.416;2022-10-16T01:48:21;28.65;;;22.42;;
35306;SDS011;21420;52.196;21.416;2022-10-16T01:50:55;26.65;;;20.65;;
35306;SDS011;21420;52.196;21.416;2022-10-16T01:53:32;24.67;;;20.57;;
35306;SDS011;21420;52.196;21.416;2022-10-16T01:56:00;26.90;;;21.05;;
35306;SDS011;21420;52.196;21.416;2022-10-16T01:58:30;24.35;;;19.37;;
35306;SDS011;21420;52.196;21.416;2022-10-16T02:01:01;27.73;;;21.52;;
35306;SDS011;21420;52.196;21.416;2022-10-16T02:03:30;26.95;;;21.87;;
35306;SDS011;21420;52.196;21.416;2022-10-16T02:05:58;26.97;;;22.17;;
35306;SDS011;21420;52.196;21.416;2022-10-16T02:08:26;28.73;;;22.77;;
35306;SDS011;21420;52.196;21.416;2022-10-16T02:10:57;26.65;;;22.32;;
35306;SDS011;21420;52.196;21.416;2022-10-16T02:18:49;25.45;;;20.62;;
35306;SDS011;21420;52.196;21.416;2022-10-16T02:21:23;24.75;;;21.42;;
35306;SDS011;21420;52.196;21.416;2022-10-16T02:26:36;28.52;;;20.55;;
35306;SDS011;21420;52.196;21.416;2022-10-16T02:29:18;27.60;;;20.17;;
35306;SDS011;21420;52.196;21.416;2022-10-16T02:31:49;23.10;;;19.65;;
35306;SDS011;21420;52.196;21.416;2022-10-16T02:34:20;23.30;;;19.55;;
35306;SDS011;21420;52.196;21.416;2022-10-16T02:36:48;26.10;;;19.57;;
35306;SDS011;21420;52.196;21.416;2022-10-16T02:39:17;26.35;;;19.95;;
35306;SDS011;21420;52.196;21.416;2022-10-16T02:41:45;23.18;;;20.05;;
35306;SDS011;21420;52.196;21.416;2022-10-16T02:44:11;24.47;;;19.70;;
35306;SDS011;21420;52.196;21.416;2022-10-16T02:46:37;22.32;;;19.67;;
35306;SDS011;21420;52.196;21.416;2022-10-16T02:49:03;27.25;;;21.07;;
35306;SDS011;21420;52.196;21.416;2022-10-16T02:51:30;24.37;;;19.75;;
35306;SDS011;21420;52.196;21.416;2022-10-16T02:53:56;27.17;;;20.50;;
35306;SDS011;21420;52.196;21.416;2022-10-16T02:56:22;25.35;;;20.45;;
35306;SDS011;21420;52.196;21.416;2022-10-16T02:58:49;26.12;;;20.77;;
35306;SDS011;21420;52.196;21.416;2022-10-16T03:01:15;23.10;;;19.30;;
35306;SDS011;21420;52.196;21.416;2022-10-16T03:03:42;24.23;;;20.30;;
35306;SDS011;21420;52.196;21.416;2022-10-16T03:06:08;25.88;;;20.57;;
35306;SDS011;21420;52.196;21.416;2022-10-16T03:08:34;26.73;;;20.75;;
35306;SDS011;21420;52.196;21.416;2022-10-16T03:11:00;27.27;;;20.85;;
35306;SDS011;21420;52.196;21.416;2022-10-16T03:13:27;27.35;;;21.42;;
35306;SDS011;21420;52.196;21.416;2022-10-16T03:15:53;25.45;;;20.62;;
35306;SDS011;21420;52.196;21.416;2022-10-16T03:18:20;22.95;;;19.27;;
35306;SDS011;21420;52.196;21.416;2022-10-16T03:20:46;23.73;;;19.55;;
35306;SDS011;21420;52.196;21.416;2022-10-16T03:23:12;26.20;;;20.02;;
35306;SDS011;21420;52.196;21.416;2022-10-16T03:25:39;24.40;;;19.55;;
35306;SDS011;21420;52.196;21.416;2022-10-16T03:28:05;25.40;;;19.73;;
35306;SDS011;21420;52.196;21.416;2022-10-16T03:30:31;25.68;;;20.50;;
35306;SDS011;21420;52.196;21.416;2022-10-16T03:32:58;21.30;;;18.87;;
35306;SDS011;21420;52.196;21.416;2022-10-16T03:35:24;24.27;;;19.65;;
35306;SDS011;21420;52.196;21.416;2022-10-16T03:37:51;24.25;;;18.55;;
35306;SDS011;21420;52.196;21.416;2022-10-16T03:40:17;24.47;;;19.60;;
35306;SDS011;21420;52.196;21.416;2022-10-16T03:42:43;25.30;;;18.60;;
35306;SDS011;21420;52.196;21.416;2022-10-16T03:45:10;21.00;;;18.37;;
35306;SDS011;21420;52.196;21.416;2022-10-16T03:47:37;21.68;;;19.07;;
35306;SDS011;21420;52.196;21.416;2022-10-16T03:50:03;24.23;;;19.52;;
35306;SDS011;21420;52.196;21.416;2022-10-16T03:52:31;22.35;;;18.25;;
35306;SDS011;21420;52.196;21.416;2022-10-16T03:54:58;21.57;;;18.80;;
35306;SDS011;21420;52.196;21.416;2022-10-16T03:57:24;21.10;;;18.57;;
35306;SDS011;21420;52.196;21.416;2022-10-16T03:59:50;23.35;;;18.65;;
35306;SDS011;21420;52.196;21.416;2022-10-16T04:02:17;20.95;;;18.30;;
35306;SDS011;21420;52.196;21.416;2022-10-16T04:04:43;26.37;;;19.62;;
35306;SDS011;21420;52.196;21.416;2022-10-16T04:07:09;20.80;;;17.40;;
35306;SDS011;21420;52.196;21.416;2022-10-16T04:09:35;22.32;;;17.23;;
35306;SDS011;21420;52.196;21.416;2022-10-16T04:12:01;21.85;;;18.45;;
35306;SDS011;21420;52.196;21.416;2022-10-16T04:14:27;22.10;;;17.50;;
35306;SDS011;21420;52.196;21.416;2022-10-16T04:16:53;21.42;;;17.20;;
35306;SDS011;21420;52.196;21.416;2022-10-16T04:19:19;23.18;;;18.07;;
35306;SDS011;21420;52.196;21.416;2022-10-16T04:21:45;22.20;;;17.60;;
35306;SDS011;21420;52.196;21.416;2022-10-16T04:24:12;24.70;;;18.32;;
35306;SDS011;21420;52.196;21.416;2022-10-16T04:26:38;26.30;;;18.15;;
35306;SDS011;21420;52.196;21.416;2022-10-16T04:29:04;20.55;;;17.32;;
35306;SDS011;21420;52.196;21.416;2022-10-16T04:31:31;21.02;;;18.17;;
35306;SDS011;21420;52.196;21.416;2022-10-16T04:33:57;21.35;;;18.15;;
35306;SDS011;21420;52.196;21.416;2022-10-16T04:36:23;21.40;;;16.77;;
35306;SDS011;21420;52.196;21.416;2022-10-16T04:38:49;20.60;;;17.42;;
35306;SDS011;21420;52.196;21.416;2022-10-16T04:41:15;19.95;;;17.57;;
35306;SDS011;21420;52.196;21.416;2022-10-16T04:43:42;20.43;;;16.27;;
35306;SDS011;21420;52.196;21.416;2022-10-16T04:46:08;21.73;;;16.42;;
35306;SDS011;21420;52.196;21.416;2022-10-16T04:48:35;22.37;;;16.30;;
35306;SDS011;21420;52.196;21.416;2022-10-16T04:51:01;22.42;;;17.77;;
35306;SDS011;21420;52.196;21.416;2022-10-16T04:53:28;18.55;;;16.42;;
35306;SDS011;21420;52.196;21.416;2022-10-16T04:55:54;23.18;;;16.97;;
35306;SDS011;21420;52.196;21.416;2022-10-16T04:58:21;19.95;;;15.95;;
35306;SDS011;21420;52.196;21.416;2022-10-16T05:00:48;21.00;;;15.98;;
35306;SDS011;21420;52.196;21.416;2022-10-16T05:03:14;22.05;;;16.02;;
35306;SDS011;21420;52.196;21.416;2022-10-16T05:05:43;18.50;;;15.80;;
35306;SDS011;21420;52.196;21.416;2022-10-16T05:08:12;19.87;;;16.35;;
35306;SDS011;21420;52.196;21.416;2022-10-16T05:10:40;18.17;;;15.85;;
35306;SDS011;21420;52.196;21.416;2022-10-16T05:13:08;22.40;;;17.50;;
35306;SDS011;21420;52.196;21.416;2022-10-16T05:15:35;17.95;;;15.78;;
35306;SDS011;21420;52.196;21.416;2022-10-16T05:18:01;18.35;;;15.80;;
35306;SDS011;21420;52.196;21.416;2022-10-16T05:20:28;17.98;;;15.03;;
35306;SDS011;21420;52.196;21.416;2022-10-16T05:22:54;18.50;;;16.23;;
35306;SDS011;21420;52.196;21.416;2022-10-16T05:25:20;18.12;;;15.32;;
35306;SDS011;21420;52.196;21.416;2022-10-16T05:27:47;19.80;;;15.63;;
35306;SDS011;21420;52.196;21.416;2022-10-16T05:30:15;20.92;;;17.25;;
35306;SDS011;21420;52.196;21.416;2022-10-16T05:32:47;21.33;;;16.70;;
35306;SDS011;21420;52.196;21.416;2022-10-16T05:35:13;20.50;;;16.77;;
35306;SDS011;21420;52.196;21.416;2022-10-16T05:37:40;17.23;;;15.20;;
35306;SDS011;21420;52.196;21.416;2022-10-16T05:40:07;18.48;;;16.57;;
35306;SDS011;21420;52.196;21.416;2022-10-16T05:42:34;19.87;;;15.85;;
35306;SDS011;21420;52.196;21.416;2022-10-16T05:45:00;17.75;;;15.90;;
35306;SDS011;21420;52.196;21.416;2022-10-16T05:47:26;18.73;;;15.25;;
35306;SDS011;21420;52.196;21.416;2022-10-16T05:49:52;20.65;;;16.00;;
35306;SDS011;21420;52.196;21.416;2022-10-16T05:52:19;20.05;;;16.00;;
35306;SDS011;21420;52.196;21.416;2022-10-16T06:15:02;18.65;;;15.75;;
35306;SDS011;21420;52.196;21.416;2022-10-16T06:17:30;19.10;;;15.60;;
35306;SDS011;21420;52.196;21.416;2022-10-16T06:19:56;20.17;;;15.72;;
35306;SDS011;21420;52.196;21.416;2022-10-16T06:22:23;17.95;;;15.30;;
35306;SDS011;21420;52.196;21.416;2022-10-16T06:24:49;16.55;;;14.70;;
35306;SDS011;21420;52.196;21.416;2022-10-16T06:27:15;16.45;;;14.30;;
35306;SDS011;21420;52.196;21.416;2022-10-16T06:29:41;17.17;;;15.13;;
35306;SDS011;21420;52.196;21.416;2022-10-16T06:32:09;16.77;;;15.05;;
35306;SDS011;21420;52.196;21.416;2022-10-16T06:34:35;20.43;;;13.98;;
35306;SDS011;21420;52.196;21.416;2022-10-16T06:37:01;19.27;;;14.43;;
35306;SDS011;21420;52.196;21.416;2022-10-16T06:39:27;16.02;;;14.43;;
35306;SDS011;21420;52.196;21.416;2022-10-16T06:41:53;15.38;;;13.00;;
35306;SDS011;21420;52.196;21.416;2022-10-16T06:44:22;16.00;;;14.43;;
35306;SDS011;21420;52.196;21.416;2022-10-16T06:46:48;17.12;;;13.45;;
35306;SDS011;21420;52.196;21.416;2022-10-16T06:49:14;13.65;;;12.23;;
35306;SDS011;21420;52.196;21.416;2022-10-16T07:03:21;13.00;;;11.70;;
35306;SDS011;21420;52.196;21.416;2022-10-16T07:05:47;13.00;;;11.68;;
35306;SDS011;21420;52.196;21.416;2022-10-16T07:08:13;12.95;;;11.75;;
35306;SDS011;21420;52.196;21.416;2022-10-16T07:10:39;16.62;;;12.28;;
35306;SDS011;21420;52.196;21.416;2022-10-16T07:13:06;14.30;;;12.55;;
35306;SDS011;21420;52.196;21.416;2022-10-16T07:15:37;17.40;;;12.13;;
35306;SDS011;21420;52.196;21.416;2022-10-16T07:18:03;13.70;;;12.30;;
35306;SDS011;21420;52.196;21.416;2022-10-16T07:20:31;13.20;;;11.90;;
35306;SDS011;21420;52.196;21.416;2022-10-16T07:22:58;13.00;;;11.70;;
35306;SDS011;21420;52.196;21.416;2022-10-16T07:25:24;17.15;;;12.88;;
35306;SDS011;21420;52.196;21.416;2022-10-16T07:27:51;13.80;;;12.40;;
35306;SDS011;21420;52.196;21.416;2022-10-16T07:30:17;12.58;;;11.28;;
35306;SDS011;21420;52.196;21.416;2022-10-16T07:32:43;12.82;;;11.28;;
35306;SDS011;21420;52.196;21.416;2022-10-16T07:35:09;13.03;;;11.73;;
35306;SDS011;21420;52.196;21.416;2022-10-16T07:37:35;15.05;;;11.65;;
35306;SDS011;21420;52.196;21.416;2022-10-16T07:40:02;15.23;;;11.70;;
35306;SDS011;21420;52.196;21.416;2022-10-16T07:42:29;13.58;;;12.18;;
35306;SDS011;21420;52.196;21.416;2022-10-16T07:44:56;12.65;;;11.45;;
35306;SDS011;21420;52.196;21.416;2022-10-16T07:47:22;14.83;;;12.03;;
35306;SDS011;21420;52.196;21.416;2022-10-16T07:49:48;14.23;;;12.47;;
35306;SDS011;21420;52.196;21.416;2022-10-16T07:52:14;16.70;;;13.53;;
35306;SDS011;21420;52.196;21.416;2022-10-16T07:54:41;14.53;;;13.03;;
35306;SDS011;21420;52.196;21.416;2022-10-16T07:57:07;15.60;;;12.93;;
35306;SDS011;21420;52.196;21.416;2022-10-16T07:59:33;15.70;;;14.00;;
35306;SDS011;21420;52.196;21.416;2022-10-16T08:02:00;17.95;;;14.78;;
35306;SDS011;21420;52.196;21.416;2022-10-16T08:04:26;15.10;;;13.53;;
35306;SDS011;21420;52.196;21.416;2022-10-16T08:06:52;16.07;;;13.53;;
35306;SDS011;21420;52.196;21.416;2022-10-16T08:09:19;15.25;;;12.65;;
35306;SDS011;21420;52.196;21.416;2022-10-16T08:11:46;15.68;;;13.28;;
35306;SDS011;21420;52.196;21.416;2022-10-16T08:14:12;14.95;;;12.93;;
35306;SDS011;21420;52.196;21.416;2022-10-16T08:16:38;15.55;;;12.68;;
35306;SDS011;21420;52.196;21.416;2022-10-16T08:19:05;13.98;;;12.35;;
35306;SDS011;21420;52.196;21.416;2022-10-16T08:21:31;16.37;;;12.35;;
35306;SDS011;21420;52.196;21.416;2022-10-16T08:23:57;14.98;;;12.98;;
35306;SDS011;21420;52.196;21.416;2022-10-16T08:26:26;13.40;;;11.80;;
35306;SDS011;21420;52.196;21.416;2022-10-16T08:28:53;13.25;;;11.93;;
35306;SDS011;21420;52.196;21.416;2022-10-16T08:31:20;12.98;;;11.55;;
35306;SDS011;21420;52.196;21.416;2022-10-16T08:33:48;18.05;;;12.33;;
35306;SDS011;21420;52.196;21.416;2022-10-16T08:36:15;14.70;;;12.73;;
35306;SDS011;21420;52.196;21.416;2022-10-16T08:38:42;16.40;;;12.13;;
35306;SDS011;21420;52.196;21.416;2022-10-16T08:46:40;15.05;;;12.37;;
35306;SDS011;21420;52.196;21.416;2022-10-16T08:49:30;13.03;;;11.48;;
35306;SDS011;21420;52.196;21.416;2022-10-16T08:51:57;11.88;;;10.68;;
35306;SDS011;21420;52.196;21.416;2022-10-16T08:54:31;13.62;;;11.08;;
35306;SDS011;21420;52.196;21.416;2022-10-16T08:57:09;13.70;;;10.48;;
35306;SDS011;21420;52.196;21.416;2022-10-16T08:59:39;11.97;;;10.40;;
35306;SDS011;21420;52.196;21.416;2022-10-16T09:02:24;12.95;;;10.63;;
35306;SDS011;21420;52.196;21.416;2022-10-16T09:10:38;12.28;;;10.28;;
35306;SDS011;21420;52.196;21.416;2022-10-16T09:13:21;12.43;;;11.00;;
35306;SDS011;21420;52.196;21.416;2022-10-16T09:16:43;13.18;;;11.25;;
35306;SDS011;21420;52.196;21.416;2022-10-16T09:21:44;11.97;;;10.48;;
35306;SDS011;21420;52.196;21.416;2022-10-16T09:24:14;12.20;;;11.08;;
35306;SDS011;21420;52.196;21.416;2022-10-16T09:26:44;10.98;;;9.93;;
35306;SDS011;21420;52.196;21.416;2022-10-16T09:29:13;13.03;;;11.50;;
35306;SDS011;21420;52.196;21.416;2022-10-16T09:31:41;12.18;;;10.93;;
35306;SDS011;21420;52.196;21.416;2022-10-16T09:34:17;14.20;;;11.53;;
35306;SDS011;21420;52.196;21.416;2022-10-16T09:36:49;11.78;;;10.58;;
35306;SDS011;21420;52.196;21.416;2022-10-16T09:39:17;12.05;;;10.28;;
35306;SDS011;21420;52.196;21.416;2022-10-16T09:41:45;11.48;;;10.32;;
35306;SDS011;21420;52.196;21.416;2022-10-16T09:47:05;11.78;;;9.95;;
35306;SDS011;21420;52.196;21.416;2022-10-16T09:52:29;10.98;;;9.88;;
35306;SDS011;21420;52.196;21.416;2022-10-16T09:57:27;10.65;;;9.50;;
35306;SDS011;21420;52.196;21.416;2022-10-16T09:59:56;11.43;;;9.10;;
35306;SDS011;21420;52.196;21.416;2022-10-16T10:02:31;11.28;;;10.08;;
35306;SDS011;21420;52.196;21.416;2022-10-16T10:07:52;9.60;;;8.70;;
35306;SDS011;21420;52.196;21.416;2022-10-16T10:10:25;11.50;;;9.18;;
35306;SDS011;21420;52.196;21.416;2022-10-16T10:12:51;10.03;;;8.58;;
35306;SDS011;21420;52.196;21.416;2022-10-16T10:15:19;10.10;;;8.83;;
35306;SDS011;21420;52.196;21.416;2022-10-16T10:17:48;10.50;;;9.53;;
35306;SDS011;21420;52.196;21.416;2022-10-16T10:22:56;11.35;;;10.23;;
35306;SDS011;21420;52.196;21.416;2022-10-16T10:31:47;11.88;;;9.18;;
35306;SDS011;21420;52.196;21.416;2022-10-16T10:34:11;9.40;;;8.50;;
35306;SDS011;21420;52.196;21.416;2022-10-16T10:36:47;9.28;;;8.38;;
35306;SDS011;21420;52.196;21.416;2022-10-16T10:44:53;12.25;;;9.43;;
35306;SDS011;21420;52.196;21.416;2022-10-16T10:47:51;11.73;;;9.58;;
35306;SDS011;21420;52.196;21.416;2022-10-16T10:53:21;10.68;;;8.95;;
35306;SDS011;21420;52.196;21.416;2022-10-16T11:05:05;11.50;;;10.30;;
35306;SDS011;21420;52.196;21.416;2022-10-16T11:08:06;11.45;;;10.25;;
35306;SDS011;21420;52.196;21.416;2022-10-16T11:13:40;11.03;;;9.90;;
35306;SDS011;21420;52.196;21.416;2022-10-16T11:16:21;13.08;;;10.78;;
35306;SDS011;21420;52.196;21.416;2022-10-16T11:21:50;11.18;;;10.08;;
35306;SDS011;21420;52.196;21.416;2022-10-16T11:24:23;10.72;;;9.73;;
35306;SDS011;21420;52.196;21.416;2022-10-16T11:26:53;12.90;;;10.43;;
35306;SDS011;21420;52.196;21.416;2022-10-16T11:29:23;12.07;;;10.20;;
35306;SDS011;21420;52.196;21.416;2022-10-16T11:31:53;14.85;;;11.05;;
35306;SDS011;21420;52.196;21.416;2022-10-16T11:34:34;11.12;;;10.03;;
35306;SDS011;21420;52.196;21.416;2022-10-16T11:37:11;13.10;;;10.48;;
35306;SDS011;21420;52.196;21.416;2022-10-16T11:39:42;10.75;;;9.33;;
35306;SDS011;21420;52.196;21.416;2022-10-16T11:50:53;11.15;;;9.65;;
35306;SDS011;21420;52.196;21.416;2022-10-16T11:53:45;14.13;;;8.83;;
35306;SDS011;21420;52.196;21.416;2022-10-16T11:56:19;10.82;;;9.03;;
35306;SDS011;21420;52.196;21.416;2022-10-16T12:01:29;9.88;;;8.88;;
35306;SDS011;21420;52.196;21.416;2022-10-16T12:04:16;9.48;;;8.45;;
35306;SDS011;21420;52.196;21.416;2022-10-16T12:06:52;11.22;;;8.73;;
35306;SDS011;21420;52.196;21.416;2022-10-16T12:09:36;18.32;;;15.13;;
35306;SDS011;21420;52.196;21.416;2022-10-16T12:12:04;9.98;;;7.87;;
35306;SDS011;21420;52.196;21.416;2022-10-16T12:17:04;10.20;;;9.03;;
35306;SDS011;21420;52.196;21.416;2022-10-16T12:25:42;11.70;;;8.28;;
35306;SDS011;21420;52.196;21.416;2022-10-16T12:28:06;9.18;;;8.28;;
35306;SDS011;21420;52.196;21.416;2022-10-16T12:31:09;9.15;;;8.25;;
35306;SDS011;21420;52.196;21.416;2022-10-16T12:33:25;10.40;;;8.48;;
35306;SDS011;21420;52.196;21.416;2022-10-16T12:35:55;9.78;;;8.78;;
35306;SDS011;21420;52.196;21.416;2022-10-16T12:41:25;9.35;;;8.55;;
35306;SDS011;21420;52.196;21.416;2022-10-16T12:43:56;9.60;;;8.65;;
35306;SDS011;21420;52.196;21.416;2022-10-16T12:51:51;10.03;;;8.00;;
35306;SDS011;21420;52.196;21.416;2022-10-16T12:54:19;9.75;;;7.90;;
35306;SDS011;21420;52.196;21.416;2022-10-16T12:59:53;9.05;;;8.13;;
35306;SDS011;21420;52.196;21.416;2022-10-16T13:21:00;9.83;;;8.93;;
35306;SDS011;21420;52.196;21.416;2022-10-16T13:29:13;10.20;;;9.15;;
35306;SDS011;21420;52.196;21.416;2022-10-16T13:31:40;12.93;;;9.90;;
35306;SDS011;21420;52.196;21.416;2022-10-16T13:34:27;12.37;;;9.63;;
35306;SDS011;21420;52.196;21.416;2022-10-16T13:36:48;11.68;;;9.55;;
35306;SDS011;21420;52.196;21.416;2022-10-16T13:39:22;10.15;;;9.10;;
35306;SDS011;21420;52.196;21.416;2022-10-16T13:42:26;10.60;;;9.50;;
35306;SDS011;21420;52.196;21.416;2022-10-16T13:44:43;10.75;;;9.20;;
35306;SDS011;21420;52.196;21.416;2022-10-16T13:47:17;11.83;;;9.95;;
35306;SDS011;21420;52.196;21.416;2022-10-16T13:49:44;13.18;;;10.18;;
35306;SDS011;21420;52.196;21.416;2022-10-16T13:52:16;11.93;;;10.43;;
35306;SDS011;21420;52.196;21.416;2022-10-16T13:54:45;11.00;;;9.55;;
35306;SDS011;21420;52.196;21.416;2022-10-16T13:57:15;11.73;;;10.30;;
35306;SDS011;21420;52.196;21.416;2022-10-16T13:59:42;10.58;;;9.55;;
35306;SDS011;21420;52.196;21.416;2022-10-16T14:02:15;10.55;;;9.20;;
35306;SDS011;21420;52.196;21.416;2022-10-16T14:04:47;12.88;;;10.50;;
35306;SDS011;21420;52.196;21.416;2022-10-16T14:07:15;12.25;;;10.00;;
35306;SDS011;21420;52.196;21.416;2022-10-16T14:09:47;11.00;;;9.73;;
35306;SDS011;21420;52.196;21.416;2022-10-16T14:12:17;10.43;;;9.10;;
35306;SDS011;21420;52.196;21.416;2022-10-16T14:14:48;12.53;;;9.50;;
35306;SDS011;21420;52.196;21.416;2022-10-16T14:17:22;13.32;;;8.88;;
35306;SDS011;21420;52.196;21.416;2022-10-16T14:19:55;10.23;;;9.15;;
35306;SDS011;21420;52.196;21.416;2022-10-16T14:22:29;9.58;;;8.55;;
35306;SDS011;21420;52.196;21.416;2022-10-16T14:36:04;11.50;;;9.88;;
35306;SDS011;21420;52.196;21.416;2022-10-16T14:38:39;11.88;;;10.60;;
35306;SDS011;21420;52.196;21.416;2022-10-16T14:41:08;13.03;;;9.70;;
35306;SDS011;21420;52.196;21.416;2022-10-16T14:43:36;12.60;;;11.25;;
35306;SDS011;21420;52.196;21.416;2022-10-16T14:46:17;12.13;;;10.68;;
35306;SDS011;21420;52.196;21.416;2022-10-16T14:48:50;12.30;;;10.13;;
35306;SDS011;21420;52.196;21.416;2022-10-16T14:51:20;12.75;;;9.83;;
35306;SDS011;21420;52.196;21.416;2022-10-16T14:53:47;13.08;;;10.18;;
35306;SDS011;21420;52.196;21.416;2022-10-16T14:56:17;11.97;;;10.25;;
35306;SDS011;21420;52.196;21.416;2022-10-16T14:58:46;10.50;;;9.48;;
35306;SDS011;21420;52.196;21.416;2022-10-16T15:01:13;13.58;;;9.70;;
35306;SDS011;21420;52.196;21.416;2022-10-16T15:03:40;12.23;;;9.03;;
35306;SDS011;21420;52.196;21.416;2022-10-16T15:06:14;10.18;;;9.18;;
35306;SDS011;21420;52.196;21.416;2022-10-16T15:08:42;11.73;;;10.25;;
35306;SDS011;21420;52.196;21.416;2022-10-16T15:11:10;13.30;;;10.23;;
35306;SDS011;21420;52.196;21.416;2022-10-16T15:13:42;15.72;;;11.38;;
35306;SDS011;21420;52.196;21.416;2022-10-16T15:16:12;13.08;;;10.55;;
35306;SDS011;21420;52.196;21.416;2022-10-16T15:18:42;12.73;;;10.40;;
35306;SDS011;21420;52.196;21.416;2022-10-16T15:21:20;12.60;;;10.40;;
35306;SDS011;21420;52.196;21.416;2022-10-16T15:23:44;16.50;;;11.05;;
35306;SDS011;21420;52.196;21.416;2022-10-16T15:26:10;13.58;;;11.22;;
35306;SDS011;21420;52.196;21.416;2022-10-16T15:28:36;12.82;;;11.28;;
35306;SDS011;21420;52.196;21.416;2022-10-16T15:31:03;15.13;;;11.95;;
35306;SDS011;21420;52.196;21.416;2022-10-16T15:33:31;13.53;;;10.75;;
35306;SDS011;21420;52.196;21.416;2022-10-16T15:35:59;11.95;;;10.68;;
35306;SDS011;21420;52.196;21.416;2022-10-16T15:38:26;11.75;;;10.48;;
35306;SDS011;21420;52.196;21.416;2022-10-16T15:40:54;12.18;;;10.48;;
35306;SDS011;21420;52.196;21.416;2022-10-16T15:43:21;13.45;;;10.78;;
35306;SDS011;21420;52.196;21.416;2022-10-16T15:46:06;12.07;;;10.78;;
35306;SDS011;21420;52.196;21.416;2022-10-16T15:48:34;15.40;;;11.35;;
35306;SDS011;21420;52.196;21.416;2022-10-16T15:51:04;13.98;;;11.25;;
35306;SDS011;21420;52.196;21.416;2022-10-16T15:53:31;13.43;;;12.03;;
35306;SDS011;21420;52.196;21.416;2022-10-16T15:56:05;15.00;;;12.35;;
35306;SDS011;21420;52.196;21.416;2022-10-16T15:58:34;13.38;;;11.70;;
35306;SDS011;21420;52.196;21.416;2022-10-16T16:01:02;14.07;;;11.97;;
35306;SDS011;21420;52.196;21.416;2022-10-16T16:03:30;15.85;;;12.40;;
35306;SDS011;21420;52.196;21.416;2022-10-16T16:05:57;14.20;;;12.63;;
35306;SDS011;21420;52.196;21.416;2022-10-16T16:08:28;17.70;;;12.58;;
35306;SDS011;21420;52.196;21.416;2022-10-16T16:10:58;14.03;;;12.15;;
35306;SDS011;21420;52.196;21.416;2022-10-16T16:13:28;17.02;;;13.08;;
35306;SDS011;21420;52.196;21.416;2022-10-16T16:15:54;14.13;;;12.58;;
35306;SDS011;21420;52.196;21.416;2022-10-16T16:18:21;16.50;;;13.43;;
35306;SDS011;21420;52.196;21.416;2022-10-16T16:20:49;16.90;;;12.13;;
35306;SDS011;21420;52.196;21.416;2022-10-16T16:23:16;14.98;;;12.75;;
35306;SDS011;21420;52.196;21.416;2022-10-16T16:25:44;13.38;;;11.93;;
35306;SDS011;21420;52.196;21.416;2022-10-16T16:28:13;14.33;;;12.55;;
35306;SDS011;21420;52.196;21.416;2022-10-16T16:30:40;15.28;;;11.55;;
35306;SDS011;21420;52.196;21.416;2022-10-16T16:33:07;14.90;;;12.40;;
35306;SDS011;21420;52.196;21.416;2022-10-16T16:35:33;16.12;;;12.78;;
35306;SDS011;21420;52.196;21.416;2022-10-16T16:37:59;15.53;;;12.63;;
35306;SDS011;21420;52.196;21.416;2022-10-16T16:40:27;15.13;;;13.03;;
35306;SDS011;21420;52.196;21.416;2022-10-16T16:42:53;19.98;;;13.40;;
35306;SDS011;21420;52.196;21.416;2022-10-16T16:45:19;17.35;;;13.32;;
35306;SDS011;21420;52.196;21.416;2022-10-16T16:47:46;19.95;;;14.25;;
35306;SDS011;21420;52.196;21.416;2022-10-16T16:50:13;16.57;;;14.20;;
35306;SDS011;21420;52.196;21.416;2022-10-16T16:52:39;16.80;;;14.70;;
35306;SDS011;21420;52.196;21.416;2022-10-16T16:55:08;18.48;;;15.72;;
35306;SDS011;21420;52.196;21.416;2022-10-16T16:57:34;23.92;;;16.40;;
35306;SDS011;21420;52.196;21.416;2022-10-16T17:00:01;18.05;;;15.08;;
35306;SDS011;21420;52.196;21.416;2022-10-16T17:02:28;16.25;;;14.23;;
35306;SDS011;21420;52.196;21.416;2022-10-16T17:04:55;18.85;;;14.78;;
35306;SDS011;21420;52.196;21.416;2022-10-16T17:07:22;18.75;;;15.03;;
35306;SDS011;21420;52.196;21.416;2022-10-16T17:09:51;19.65;;;15.08;;
35306;SDS011;21420;52.196;21.416;2022-10-16T17:12:17;17.70;;;14.43;;
35306;SDS011;21420;52.196;21.416;2022-10-16T17:14:45;18.45;;;14.58;;
35306;SDS011;21420;52.196;21.416;2022-10-16T17:17:11;21.87;;;15.65;;
35306;SDS011;21420;52.196;21.416;2022-10-16T17:19:37;18.98;;;15.15;;
35306;SDS011;21420;52.196;21.416;2022-10-16T17:22:05;19.12;;;15.28;;
35306;SDS011;21420;52.196;21.416;2022-10-16T17:24:32;21.12;;;15.63;;
35306;SDS011;21420;52.196;21.416;2022-10-16T17:26:58;20.35;;;15.72;;
35306;SDS011;21420;52.196;21.416;2022-10-16T17:29:25;20.40;;;15.75;;